sensor_id;sensor_type;location;lat;lon;timestamp;P1;durP1;ratioP1;P2;durP2;ratioP2
14774;SDS011;7479;47.042;15.160;2024-03-02T07:29:23;28.97;;;18.40;;
14774;SDS011;7479;47.042;15.160;2024-03-02T07:34:18;26.33;;;18.33;;
14774;SDS011;7479;47.042;15.160;2024-03-02T07:39:12;26.07;;;18.27;;
14774;SDS011;7479;47.042;15.160;2024-03-02T07:44:06;23.97;;;16.10;;
14774;SDS011;7479;47.042;15.160;2024-03-02T07:49:01;24.17;;;15.90;;
14774;SDS011;7479;47.042;15.160;2024-03-02T07:53:55;23.73;;;16.73;;
14774;SDS011;7479;47.042;15.160;2024-03-02T07:58:49;27.50;;;18.10;;
14774;SDS011;7479;47.042;15.160;2024-03-02T08:18:32;28.80;;;17.33;;
14774;SDS011;7479;47.042;15.160;2024-03-02T08:23:29;26.53;;;17.43;;
14774;SDS011;7479;47.042;15.160;2024-03-02T08:28:23;27.50;;;17.90;;
14774;SDS011;7479;47.042;15.160;2024-03-02T08:33:18;27.80;;;16.40;;
14774;SDS011;7479;47.042;15.160;2024-03-02T08:38:12;25.00;;;17.13;;
14774;SDS011;7479;47.042;15.160;2024-03-02T08:43:06;25.67;;;16.53;;
14774;SDS011;7479;47.042;15.160;2024-03-02T08:48:00;25.33;;;18.53;;
14774;SDS011;7479;47.042;15.160;2024-03-02T08:52:55;22.67;;;15.53;;
14774;SDS011;7479;47.042;15.160;2024-03-02T08:57:49;23.13;;;16.23;;
14774;SDS011;7479;47.042;15.160;2024-03-02T09:02:43;24.97;;;16.83;;
14774;SDS011;7479;47.042;15.160;2024-03-02T09:07:37;27.17;;;15.57;;
14774;SDS011;7479;47.042;15.160;2024-03-02T09:12:33;20.13;;;14.37;;
14774;SDS011;7479;47.042;15.160;2024-03-02T09:17:27;20.83;;;15.50;;
14774;SDS011;7479;47.042;15.160;2024-03-02T09:22:20;20.60;;;13.73;;
14774;SDS011;7479;47.042;15.160;2024-03-02T09:27:14;21.93;;;14.77;;
14774;SDS011;7479;47.042;15.160;2024-03-02T09:32:12;22.73;;;14.50;;
14774;SDS011;7479;47.042;15.160;2024-03-02T09:37:06;18.17;;;13.50;;
14774;SDS011;7479;47.042;15.160;2024-03-02T09:42:00;16.13;;;11.87;;
14774;SDS011;7479;47.042;15.160;2024-03-02T09:46:54;16.50;;;11.37;;
14774;SDS011;7479;47.042;15.160;2024-03-02T09:51:49;16.17;;;11.53;;
14774;SDS011;7479;47.042;15.160;2024-03-02T09:56:44;18.27;;;11.23;;
14774;SDS011;7479;47.042;15.160;2024-03-02T10:01:51;16.23;;;11.07;;
14774;SDS011;7479;47.042;15.160;2024-03-02T10:06:51;13.63;;;9.93;;
14774;SDS011;7479;47.042;15.160;2024-03-02T10:12:03;13.83;;;10.87;;
14774;SDS011;7479;47.042;15.160;2024-03-02T10:17:01;13.47;;;11.13;;
14774;SDS011;7479;47.042;15.160;2024-03-02T10:21:58;16.13;;;11.40;;
14774;SDS011;7479;47.042;15.160;2024-03-02T10:26:55;19.23;;;11.90;;
14774;SDS011;7479;47.042;15.160;2024-03-02T10:31:48;15.97;;;11.23;;
14774;SDS011;7479;47.042;15.160;2024-03-02T10:36:42;15.70;;;11.77;;
14774;SDS011;7479;47.042;15.160;2024-03-02T10:41:40;14.17;;;9.47;;
14774;SDS011;7479;47.042;15.160;2024-03-02T10:46:34;11.87;;;9.77;;
14774;SDS011;7479;47.042;15.160;2024-03-02T10:51:29;17.00;;;10.83;;
14774;SDS011;7479;47.042;15.160;2024-03-02T10:56:27;14.63;;;9.77;;
14774;SDS011;7479;47.042;15.160;2024-03-02T11:01:23;13.63;;;10.37;;
14774;SDS011;7479;47.042;15.160;2024-03-02T11:06:18;14.20;;;9.87;;
14774;SDS011;7479;47.042;15.160;2024-03-02T11:11:15;12.77;;;9.40;;
14774;SDS011;7479;47.042;15.160;2024-03-02T11:16:13;16.37;;;9.90;;
14774;SDS011;7479;47.042;15.160;2024-03-02T11:21:18;15.23;;;11.43;;
14774;SDS011;7479;47.042;15.160;2024-03-02T11:26:18;16.93;;;11.27;;
14774;SDS011;7479;47.042;15.160;2024-03-02T11:31:12;14.23;;;10.47;;
14774;SDS011;7479;47.042;15.160;2024-03-02T11:36:06;15.97;;;10.77;;
14774;SDS011;7479;47.042;15.160;2024-03-02T11:41:06;14.07;;;10.23;;
14774;SDS011;7479;47.042;15.160;2024-03-02T11:46:03;15.23;;;11.03;;
14774;SDS011;7479;47.042;15.160;2024-03-02T11:51:00;17.33;;;10.30;;
14774;SDS011;7479;47.042;15.160;2024-03-02T11:55:53;14.65;;;10.27;;
14774;SDS011;7479;47.042;15.160;2024-03-02T12:00:51;14.82;;;11.38;;
14774;SDS011;7479;47.042;15.160;2024-03-02T12:05:46;21.40;;;12.67;;
14774;SDS011;7479;47.042;15.160;2024-03-02T12:10:42;19.67;;;12.77;;
14774;SDS011;7479;47.042;15.160;2024-03-02T12:15:38;18.20;;;12.67;;
14774;SDS011;7479;47.042;15.160;2024-03-02T12:20:33;17.70;;;12.07;;
14774;SDS011;7479;47.042;15.160;2024-03-02T12:25:27;21.93;;;18.17;;
14774;SDS011;7479;47.042;15.160;2024-03-02T12:30:23;16.60;;;12.77;;
14774;SDS011;7479;47.042;15.160;2024-03-02T12:35:17;21.30;;;11.87;;
14774;SDS011;7479;47.042;15.160;2024-03-02T12:40:14;14.63;;;10.43;;
14774;SDS011;7479;47.042;15.160;2024-03-02T12:45:11;15.43;;;10.33;;
14774;SDS011;7479;47.042;15.160;2024-03-02T12:50:05;15.73;;;9.53;;
14774;SDS011;7479;47.042;15.160;2024-03-02T12:54:59;10.83;;;8.90;;
14774;SDS011;7479;47.042;15.160;2024-03-02T13:00:00;12.33;;;9.37;;
14774;SDS011;7479;47.042;15.160;2024-03-02T13:05:00;20.10;;;17.60;;
14774;SDS011;7479;47.042;15.160;2024-03-02T13:09:54;15.03;;;9.33;;
14774;SDS011;7479;47.042;15.160;2024-03-02T13:14:49;13.70;;;8.70;;
14774;SDS011;7479;47.042;15.160;2024-03-02T13:19:52;12.77;;;8.40;;
14774;SDS011;7479;47.042;15.160;2024-03-02T13:24:46;12.87;;;8.40;;
14774;SDS011;7479;47.042;15.160;2024-03-02T13:29:40;12.57;;;10.20;;
14774;SDS011;7479;47.042;15.160;2024-03-02T13:34:34;16.03;;;10.80;;
14774;SDS011;7479;47.042;15.160;2024-03-02T13:39:29;12.27;;;10.47;;
14774;SDS011;7479;47.042;15.160;2024-03-02T13:44:23;17.17;;;15.37;;
14774;SDS011;7479;47.042;15.160;2024-03-02T13:49:17;14.33;;;8.93;;
14774;SDS011;7479;47.042;15.160;2024-03-02T13:54:11;10.90;;;8.77;;
14774;SDS011;7479;47.042;15.160;2024-03-02T13:59:06;15.17;;;9.13;;
14774;SDS011;7479;47.042;15.160;2024-03-02T14:04:01;11.40;;;8.87;;
14774;SDS011;7479;47.042;15.160;2024-03-02T14:08:54;14.40;;;9.03;;
14774;SDS011;7479;47.042;15.160;2024-03-02T14:13:48;15.07;;;10.20;;
14774;SDS011;7479;47.042;15.160;2024-03-02T14:18:47;15.63;;;9.60;;
14774;SDS011;7479;47.042;15.160;2024-03-02T14:23:41;13.47;;;9.77;;
14774;SDS011;7479;47.042;15.160;2024-03-02T14:28:35;15.73;;;9.60;;
14774;SDS011;7479;47.042;15.160;2024-03-02T14:33:41;12.70;;;8.60;;
14774;SDS011;7479;47.042;15.160;2024-03-02T14:38:36;13.93;;;9.30;;
14774;SDS011;7479;47.042;15.160;2024-03-02T14:43:30;12.30;;;9.17;;
14774;SDS011;7479;47.042;15.160;2024-03-02T14:48:24;13.97;;;9.13;;
14774;SDS011;7479;47.042;15.160;2024-03-02T14:53:18;13.70;;;8.33;;
14774;SDS011;7479;47.042;15.160;2024-03-02T14:58:13;13.60;;;9.67;;
14774;SDS011;7479;47.042;15.160;2024-03-02T15:03:08;15.07;;;10.90;;
14774;SDS011;7479;47.042;15.160;2024-03-02T15:08:03;12.83;;;9.93;;
14774;SDS011;7479;47.042;15.160;2024-03-02T15:12:57;14.00;;;10.00;;
14774;SDS011;7479;47.042;15.160;2024-03-02T15:17:53;14.40;;;11.03;;
14774;SDS011;7479;47.042;15.160;2024-03-02T15:22:47;17.83;;;10.40;;
14774;SDS011;7479;47.042;15.160;2024-03-02T15:27:41;14.60;;;11.00;;
14774;SDS011;7479;47.042;15.160;2024-03-02T15:32:34;12.07;;;10.10;;
14774;SDS011;7479;47.042;15.160;2024-03-02T15:37:31;14.37;;;10.73;;
14774;SDS011;7479;47.042;15.160;2024-03-02T15:42:25;16.10;;;12.10;;
14774;SDS011;7479;47.042;15.160;2024-03-02T15:47:19;14.60;;;11.57;;
14774;SDS011;7479;47.042;15.160;2024-03-02T15:52:12;16.03;;;12.63;;
14774;SDS011;7479;47.042;15.160;2024-03-02T15:57:11;32.43;;;22.53;;
14774;SDS011;7479;47.042;15.160;2024-03-02T16:02:05;14.70;;;12.00;;
